Time;durP1;ratioP1;P1;durP2;ratioP2;P2;SDS_P1;SDS_P2;PMS_P1;PMS_P2;Temp;Humidity;BMP_temperature;BMP_pressure;BME280_temperature;BME280_humidity;BME280_pressure;Samples;Min_cycle;Max_cycle;Signal;HPM_P1;HPM_P2
2022/03/11 00:01:26;;;;;;;10.05;5.90;;;;;;;;;;5092955;28;20277;-64
2022/03/11 00:03:52;;;;;;;10.18;6.15;;;;;;;;;;5093507;28;20179;-64
2022/03/11 00:06:18;;;;;;;11.10;5.82;;;;;;;;;;5093133;28;20170;-64
2022/03/11 00:08:44;;;;;;;10.90;6.50;;;;;;;;;;5093461;28;20470;-65
2022/03/11 00:11:09;;;;;;;9.50;5.78;;;;;;;;;;5093376;28;20195;-64
2022/03/11 00:13:35;;;;;;;9.13;6.05;;;;;;;;;;5093455;28;20160;-64
2022/03/11 00:16:02;;;;;;;12.50;6.32;;;;;;;;;;5093483;28;20171;-64
2022/03/11 00:18:28;;;;;;;10.50;5.82;;;;;;;;;;5095735;28;20199;-64
2022/03/11 00:20:54;;;;;;;9.90;5.95;;;;;;;;;;5097222;28;20156;-64
2022/03/11 00:23:20;;;;;;;11.00;6.70;;;;;;;;;;5097144;28;20159;-64
2022/03/11 00:25:46;;;;;;;12.93;6.40;;;;;;;;;;5097480;28;20164;-64
2022/03/11 00:28:13;;;;;;;9.65;5.78;;;;;;;;;;5096884;28;20243;-64
2022/03/11 00:30:38;;;;;;;10.68;5.85;;;;;;;;;;5097018;28;20652;-64
2022/03/11 00:33:04;;;;;;;11.18;5.80;;;;;;;;;;5097004;28;20274;-64
2022/03/11 00:35:32;;;;;;;12.18;6.80;;;;;;;;;;5097317;28;20187;-63
2022/03/11 00:37:58;;;;;;;11.20;6.10;;;;;;;;;;5097323;28;20228;-65
2022/03/11 00:40:24;;;;;;;9.57;6.03;;;;;;;;;;5097177;28;20198;-65
2022/03/11 00:42:50;;;;;;;9.23;6.15;;;;;;;;;;5097087;28;20168;-64
2022/03/11 00:45:16;;;;;;;10.52;6.38;;;;;;;;;;5097018;28;20212;-64
2022/03/11 00:47:42;;;;;;;10.63;6.43;;;;;;;;;;5097114;28;20191;-65
2022/03/11 00:50:08;;;;;;;9.10;6.25;;;;;;;;;;5097137;28;20822;-64
2022/03/11 00:52:34;;;;;;;12.25;6.32;;;;;;;;;;5097012;28;20626;-64
2022/03/11 00:55:02;;;;;;;12.98;6.22;;;;;;;;;;5096906;28;20163;-65
2022/03/11 00:57:28;;;;;;;9.90;5.88;;;;;;;;;;5097138;28;20163;-63
2022/03/11 00:59:54;;;;;;;13.15;6.63;;;;;;;;;;5097008;28;20187;-65
2022/03/11 01:02:20;;;;;;;9.55;5.57;;;;;;;;;;5096895;28;20160;-65
2022/03/11 01:04:48;;;;;;;15.18;6.43;;;;;;;;;;5096663;28;20172;-65
2022/03/11 01:07:15;;;;;;;8.40;5.90;;;;;;;;;;5096538;28;20179;-65
2022/03/11 01:09:40;;;;;;;11.18;6.05;;;;;;;;;;5097334;28;20179;-65
2022/03/11 01:12:07;;;;;;;11.00;6.35;;;;;;;;;;5096939;28;20742;-65
2022/03/11 01:14:32;;;;;;;11.60;5.50;;;;;;;;;;5096863;28;20164;-65
2022/03/11 01:16:58;;;;;;;14.48;6.53;;;;;;;;;;5096593;28;20167;-65
2022/03/11 01:19:24;;;;;;;10.73;5.53;;;;;;;;;;5096486;28;20262;-64
2022/03/11 01:21:50;;;;;;;8.52;5.13;;;;;;;;;;5096393;28;20243;-64
2022/03/11 01:24:16;;;;;;;10.30;6.05;;;;;;;;;;5096272;28;20174;-65
2022/03/11 01:26:42;;;;;;;12.13;6.60;;;;;;;;;;5095903;28;20168;-65
2022/03/11 01:29:08;;;;;;;9.38;6.05;;;;;;;;;;5095356;28;20164;-64
2022/03/11 01:31:34;;;;;;;12.60;6.13;;;;;;;;;;5095635;28;20191;-64
2022/03/11 01:34:00;;;;;;;11.40;6.25;;;;;;;;;;5096100;28;20175;-64
2022/03/11 01:36:26;;;;;;;9.32;5.45;;;;;;;;;;5095732;28;20234;-64
2022/03/11 01:38:52;;;;;;;11.80;6.50;;;;;;;;;;5095564;28;20573;-65
2022/03/11 01:41:18;;;;;;;11.25;5.82;;;;;;;;;;5095916;28;20508;-65
2022/03/11 01:43:51;;;;;;;10.43;5.97;;;;;;;;;;5095688;28;20164;-64
2022/03/11 01:46:17;;;;;;;13.93;5.93;;;;;;;;;;5095986;28;20167;-64
2022/03/11 01:48:43;;;;;;;10.98;6.57;;;;;;;;;;5095940;28;20231;-64
2022/03/11 01:51:09;;;;;;;11.25;6.45;;;;;;;;;;5095399;28;20190;-64
2022/03/11 01:53:35;;;;;;;13.40;6.55;;;;;;;;;;5095719;28;20220;-64
2022/03/11 01:56:02;;;;;;;9.38;6.00;;;;;;;;;;5095974;28;20242;-64
2022/03/11 01:58:28;;;;;;;11.10;5.93;;;;;;;;;;5096162;28;20186;-63
2022/03/11 02:00:54;;;;;;;11.75;6.03;;;;;;;;;;5095860;28;20176;-63
2022/03/11 02:03:20;;;;;;;11.70;6.00;;;;;;;;;;5096425;28;20172;-64
2022/03/11 02:05:47;;;;;;;10.88;5.80;;;;;;;;;;5095903;28;20195;-64
2022/03/11 02:08:13;;;;;;;10.90;5.95;;;;;;;;;;5096304;28;20166;-63
2022/03/11 02:10:39;;;;;;;10.35;5.85;;;;;;;;;;5095603;28;20185;-64
2022/03/11 02:13:06;;;;;;;13.15;6.32;;;;;;;;;;5094892;28;20192;-64
2022/03/11 02:15:32;;;;;;;9.15;6.05;;;;;;;;;;5095004;28;20172;-64
2022/03/11 02:17:57;;;;;;;10.68;5.93;;;;;;;;;;5094426;28;20480;-64
2022/03/11 02:20:24;;;;;;;10.85;6.13;;;;;;;;;;5094577;28;20225;-64
2022/03/11 02:22:50;;;;;;;11.88;6.00;;;;;;;;;;5094325;28;20160;-64
2022/03/11 02:25:16;;;;;;;11.73;6.40;;;;;;;;;;5094739;28;20304;-60
2022/03/11 02:27:42;;;;;;;11.40;6.07;;;;;;;;;;5094232;28;20171;-61
2022/03/11 02:30:13;;;;;;;11.85;6.25;;;;;;;;;;5094286;28;20167;-60
2022/03/11 02:32:39;;;;;;;13.00;6.63;;;;;;;;;;5094317;28;20510;-60
2022/03/11 02:35:05;;;;;;;14.00;6.28;;;;;;;;;;5094382;28;20201;-60
2022/03/11 02:37:31;;;;;;;14.57;6.57;;;;;;;;;;5094235;28;20172;-61
2022/03/11 02:39:57;;;;;;;11.07;6.22;;;;;;;;;;5094013;28;20490;-61
2022/03/11 02:42:23;;;;;;;11.32;5.55;;;;;;;;;;5093119;28;20244;-64
2022/03/11 02:44:49;;;;;;;12.40;5.72;;;;;;;;;;5093786;28;20232;-64
2022/03/11 02:47:15;;;;;;;10.45;6.30;;;;;;;;;;5093787;28;20171;-65
2022/03/11 02:49:41;;;;;;;11.45;6.07;;;;;;;;;;5093809;28;20226;-65
2022/03/11 02:52:07;;;;;;;12.93;6.00;;;;;;;;;;5093754;28;20227;-64
2022/03/11 02:54:34;;;;;;;10.80;6.00;;;;;;;;;;5093841;28;20182;-64
2022/03/11 02:56:59;;;;;;;10.40;5.80;;;;;;;;;;5093942;28;20242;-65
2022/03/11 02:59:25;;;;;;;9.57;5.82;;;;;;;;;;5093793;28;20278;-64
2022/03/11 03:01:52;;;;;;;8.05;5.25;;;;;;;;;;5093669;28;20183;-65
2022/03/11 03:04:18;;;;;;;9.82;5.60;;;;;;;;;;5093926;28;20559;-65
2022/03/11 03:06:44;;;;;;;12.30;5.90;;;;;;;;;;5093773;28;20474;-63
2022/03/11 03:09:10;;;;;;;9.07;5.63;;;;;;;;;;5093448;28;20178;-63
2022/03/11 03:11:36;;;;;;;11.93;6.28;;;;;;;;;;5093477;28;20223;-63
2022/03/11 03:14:02;;;;;;;12.43;6.57;;;;;;;;;;5093330;28;20174;-63
2022/03/11 03:16:28;;;;;;;9.35;5.13;;;;;;;;;;5093520;28;20191;-63
2022/03/11 03:18:54;;;;;;;10.60;6.25;;;;;;;;;;5094016;28;20199;-63
2022/03/11 03:21:21;;;;;;;12.23;6.88;;;;;;;;;;5093488;28;20171;-63
2022/03/11 03:23:47;;;;;;;11.63;6.15;;;;;;;;;;5093676;28;20221;-63
2022/03/11 03:26:13;;;;;;;11.50;5.85;;;;;;;;;;5093580;28;20202;-60
2022/03/11 03:28:39;;;;;;;10.30;5.78;;;;;;;;;;5093447;28;20236;-60
2022/03/11 03:31:05;;;;;;;11.35;6.05;;;;;;;;;;5093807;28;20553;-60
2022/03/11 03:33:31;;;;;;;10.77;5.88;;;;;;;;;;5093719;28;20182;-60
2022/03/11 03:35:57;;;;;;;11.48;6.32;;;;;;;;;;5093649;28;20583;-61
2022/03/11 03:38:23;;;;;;;9.48;5.60;;;;;;;;;;5093421;28;20194;-60
2022/03/11 03:40:49;;;;;;;12.50;6.25;;;;;;;;;;5093391;28;20237;-60
2022/03/11 03:43:15;;;;;;;10.32;5.70;;;;;;;;;;5093183;28;20170;-61
2022/03/11 03:45:41;;;;;;;11.30;6.07;;;;;;;;;;5093244;28;20254;-60
2022/03/11 03:48:07;;;;;;;9.88;6.20;;;;;;;;;;5093129;28;20246;-61
2022/03/11 03:50:33;;;;;;;11.55;5.90;;;;;;;;;;5093208;28;20174;-60
2022/03/11 03:52:59;;;;;;;10.60;6.18;;;;;;;;;;5094564;28;20695;-60
2022/03/11 03:55:25;;;;;;;11.38;6.28;;;;;;;;;;5097209;28;20216;-59
2022/03/11 03:57:51;;;;;;;10.18;6.45;;;;;;;;;;5097080;28;20671;-60
2022/03/11 04:00:17;;;;;;;11.75;5.70;;;;;;;;;;5096926;28;20178;-60
2022/03/11 04:02:46;;;;;;;12.32;6.43;;;;;;;;;;5097183;28;20152;-61
2022/03/11 04:05:13;;;;;;;13.63;6.30;;;;;;;;;;5096938;28;20228;-60
2022/03/11 04:07:39;;;;;;;10.82;6.05;;;;;;;;;;5097170;28;20256;-60
2022/03/11 04:10:05;;;;;;;10.77;6.28;;;;;;;;;;5096897;28;20167;-59
2022/03/11 04:12:32;;;;;;;10.27;6.47;;;;;;;;;;5096765;28;20187;-59
2022/03/11 04:14:58;;;;;;;12.60;6.07;;;;;;;;;;5096797;28;20265;-60
2022/03/11 04:17:24;;;;;;;11.68;6.30;;;;;;;;;;5097019;28;20233;-59
2022/03/11 04:19:50;;;;;;;13.68;6.38;;;;;;;;;;5096831;28;20655;-60
2022/03/11 04:22:16;;;;;;;13.55;6.68;;;;;;;;;;5096960;28;20163;-59
2022/03/11 04:24:42;;;;;;;11.93;5.95;;;;;;;;;;5096461;28;20179;-60
2022/03/11 04:27:09;;;;;;;9.80;5.90;;;;;;;;;;5096597;28;20168;-60
2022/03/11 04:29:35;;;;;;;13.07;6.70;;;;;;;;;;5096727;28;20163;-59
2022/03/11 04:32:01;;;;;;;10.15;5.53;;;;;;;;;;5097225;28;20187;-59
2022/03/11 04:34:27;;;;;;;10.38;6.00;;;;;;;;;;5107664;28;20168;-62
2022/03/11 04:36:53;;;;;;;17.00;7.07;;;;;;;;;;5098107;28;20171;-62
2022/03/11 04:39:19;;;;;;;12.52;6.93;;;;;;;;;;5096829;28;20172;-60
2022/03/11 04:41:45;;;;;;;12.60;7.22;;;;;;;;;;5096258;28;20560;-60
2022/03/11 04:44:11;;;;;;;10.88;6.35;;;;;;;;;;5096143;28;20175;-62
2022/03/11 04:46:37;;;;;;;12.00;6.20;;;;;;;;;;5096119;28;20533;-62
2022/03/11 04:49:03;;;;;;;11.80;6.55;;;;;;;;;;5095986;28;20163;-61
2022/03/11 04:51:29;;;;;;;11.07;6.50;;;;;;;;;;5096046;28;20537;-61
2022/03/11 04:53:55;;;;;;;13.73;6.53;;;;;;;;;;5095930;28;20205;-61
2022/03/11 04:56:21;;;;;;;13.38;6.57;;;;;;;;;;5095998;28;20644;-62
2022/03/11 04:58:46;;;;;;;12.70;6.88;;;;;;;;;;5095985;28;20170;-60
2022/03/11 05:01:12;;;;;;;12.90;6.45;;;;;;;;;;5095786;28;20184;-59
2022/03/11 05:03:38;;;;;;;10.65;6.38;;;;;;;;;;5095962;28;20375;-60
2022/03/11 05:06:05;;;;;;;12.13;6.72;;;;;;;;;;5094873;28;20526;-60
2022/03/11 05:08:31;;;;;;;12.10;6.82;;;;;;;;;;5096094;28;20168;-60
2022/03/11 05:10:57;;;;;;;12.85;7.13;;;;;;;;;;5095822;28;20636;-59
2022/03/11 05:13:23;;;;;;;15.98;6.38;;;;;;;;;;5095685;28;20195;-61
2022/03/11 05:15:49;;;;;;;11.70;6.07;;;;;;;;;;5095762;28;20728;-61
2022/03/11 05:18:14;;;;;;;13.23;7.22;;;;;;;;;;5095602;28;20202;-60
2022/03/11 05:20:40;;;;;;;14.30;6.97;;;;;;;;;;5095755;28;20168;-61
2022/03/11 05:23:06;;;;;;;10.02;6.07;;;;;;;;;;5095420;28;20170;-61
2022/03/11 05:25:32;;;;;;;15.63;6.75;;;;;;;;;;5095517;28;20167;-60
2022/03/11 05:27:58;;;;;;;11.30;6.88;;;;;;;;;;5095933;28;20216;-60
2022/03/11 05:30:24;;;;;;;9.57;5.82;;;;;;;;;;5095319;28;20595;-60
2022/03/11 05:32:50;;;;;;;15.73;7.30;;;;;;;;;;5095391;28;20191;-60
2022/03/11 05:35:16;;;;;;;15.30;7.00;;;;;;;;;;5095037;28;20637;-60
2022/03/11 05:37:43;;;;;;;10.90;6.22;;;;;;;;;;5095073;28;20164;-60
2022/03/11 05:40:10;;;;;;;12.88;6.30;;;;;;;;;;5095284;28;20166;-60
2022/03/11 05:42:36;;;;;;;12.82;7.28;;;;;;;;;;5095386;28;20172;-61
2022/03/11 05:45:02;;;;;;;12.50;6.80;;;;;;;;;;5094967;28;20167;-62
2022/03/11 05:47:29;;;;;;;11.80;6.28;;;;;;;;;;5095014;28;20167;-61
2022/03/11 05:49:55;;;;;;;13.55;6.63;;;;;;;;;;5094749;28;20182;-61
2022/03/11 05:52:22;;;;;;;12.00;6.78;;;;;;;;;;5094829;28;20191;-61
2022/03/11 05:54:48;;;;;;;12.05;7.28;;;;;;;;;;5094690;28;20221;-61
2022/03/11 05:57:14;;;;;;;12.60;6.60;;;;;;;;;;5094737;28;20174;-61
2022/03/11 05:59:40;;;;;;;13.43;6.95;;;;;;;;;;5094551;28;20171;-61
2022/03/11 06:02:06;;;;;;;10.43;6.03;;;;;;;;;;5094750;28;20160;-61
2022/03/11 06:04:31;;;;;;;13.90;6.97;;;;;;;;;;5094671;28;20175;-61
2022/03/11 06:06:57;;;;;;;11.70;6.75;;;;;;;;;;5094651;28;20301;-60
2022/03/11 06:09:23;;;;;;;12.45;6.57;;;;;;;;;;5094820;28;20172;-61
2022/03/11 06:11:49;;;;;;;11.93;7.20;;;;;;;;;;5094768;28;20192;-60
2022/03/11 06:14:15;;;;;;;11.80;6.20;;;;;;;;;;5094759;28;20160;-60
2022/03/11 06:16:41;;;;;;;12.23;6.53;;;;;;;;;;5094766;28;20487;-60
2022/03/11 06:19:07;;;;;;;12.90;6.85;;;;;;;;;;5094572;28;20171;-61
2022/03/11 06:21:33;;;;;;;11.55;6.35;;;;;;;;;;5094401;28;20167;-61
2022/03/11 06:23:59;;;;;;;14.77;7.50;;;;;;;;;;5094547;28;20564;-61
2022/03/11 06:26:25;;;;;;;13.10;6.57;;;;;;;;;;5094427;28;20175;-60
2022/03/11 06:28:51;;;;;;;10.57;6.32;;;;;;;;;;5094552;28;20184;-60
2022/03/11 06:31:17;;;;;;;12.40;6.65;;;;;;;;;;5093857;28;20228;-60
2022/03/11 06:33:43;;;;;;;11.68;6.63;;;;;;;;;;5094371;28;20220;-60
2022/03/11 06:36:09;;;;;;;13.75;7.18;;;;;;;;;;5094120;28;20537;-59
2022/03/11 06:38:34;;;;;;;9.82;6.50;;;;;;;;;;5093971;28;20264;-60
2022/03/11 06:41:00;;;;;;;10.43;6.53;;;;;;;;;;5093841;28;20162;-61
2022/03/11 06:43:26;;;;;;;12.32;6.70;;;;;;;;;;5093900;28;20212;-61
2022/03/11 06:45:52;;;;;;;14.20;7.05;;;;;;;;;;5093971;28;20595;-60
2022/03/11 06:48:19;;;;;;;12.20;6.75;;;;;;;;;;5093798;28;20164;-61
2022/03/11 06:50:45;;;;;;;10.77;6.40;;;;;;;;;;5094182;28;20674;-60
2022/03/11 06:53:11;;;;;;;13.98;6.82;;;;;;;;;;5093635;28;20194;-60
2022/03/11 06:55:37;;;;;;;11.48;6.30;;;;;;;;;;5093597;28;20238;-61
2022/03/11 06:58:03;;;;;;;12.50;5.88;;;;;;;;;;5094090;28;20155;-60
2022/03/11 07:00:29;;;;;;;11.05;5.75;;;;;;;;;;5094747;28;20183;-61
2022/03/11 07:02:55;;;;;;;11.95;6.10;;;;;;;;;;5094329;28;20159;-61
2022/03/11 07:05:21;;;;;;;15.20;6.72;;;;;;;;;;5093851;28;20617;-61
2022/03/11 07:07:47;;;;;;;10.23;5.82;;;;;;;;;;5093734;28;20167;-60
2022/03/11 07:10:16;;;;;;;10.93;6.43;;;;;;;;;;5093860;28;20175;-60
2022/03/11 07:12:42;;;;;;;11.63;6.15;;;;;;;;;;5093392;28;20253;-61
2022/03/11 07:15:08;;;;;;;9.98;6.30;;;;;;;;;;5093609;28;20251;-61
2022/03/11 07:17:34;;;;;;;9.18;5.30;;;;;;;;;;5093822;28;20194;-60
2022/03/11 07:20:00;;;;;;;10.07;5.82;;;;;;;;;;5093550;28;20168;-59
2022/03/11 07:22:26;;;;;;;9.38;5.82;;;;;;;;;;5093591;28;20228;-62
2022/03/11 07:24:52;;;;;;;13.07;6.05;;;;;;;;;;5093472;28;20603;-60
2022/03/11 07:27:18;;;;;;;10.10;6.10;;;;;;;;;;5093042;28;20172;-60
2022/03/11 07:29:44;;;;;;;13.65;5.88;;;;;;;;;;5093605;28;20252;-61
2022/03/11 07:32:12;;;;;;;9.77;5.35;;;;;;;;;;5093188;28;20270;-60
2022/03/11 07:34:38;;;;;;;11.32;5.95;;;;;;;;;;5093485;28;20219;-60
2022/03/11 07:37:04;;;;;;;10.50;5.85;;;;;;;;;;5093254;28;20160;-60
2022/03/11 07:39:30;;;;;;;15.82;5.72;;;;;;;;;;5093627;28;20190;-61
2022/03/11 07:41:56;;;;;;;7.00;4.95;;;;;;;;;;5093119;28;20171;-61
2022/03/11 07:44:22;;;;;;;9.25;5.57;;;;;;;;;;5093488;28;20163;-61
2022/03/11 07:46:48;;;;;;;10.95;6.20;;;;;;;;;;5093158;28;20159;-60
2022/03/11 07:49:14;;;;;;;10.65;5.72;;;;;;;;;;5093154;28;20476;-62
2022/03/11 07:51:40;;;;;;;9.60;5.65;;;;;;;;;;5092948;28;20193;-60
2022/03/11 07:54:06;;;;;;;10.73;5.60;;;;;;;;;;5093142;28;20170;-61
2022/03/11 07:56:32;;;;;;;8.98;5.25;;;;;;;;;;5093406;28;20194;-62
2022/03/11 07:58:59;;;;;;;8.73;4.75;;;;;;;;;;5093152;28;20194;-60
2022/03/11 08:01:26;;;;;;;9.70;5.20;;;;;;;;;;5092975;28;20623;-62
2022/03/11 08:03:52;;;;;;;10.27;5.38;;;;;;;;;;5093120;28;20171;-61
2022/03/11 08:06:18;;;;;;;10.65;5.88;;;;;;;;;;5093363;28;20224;-62
2022/03/11 08:08:44;;;;;;;15.20;5.03;;;;;;;;;;5093012;28;20250;-61
2022/03/11 08:11:11;;;;;;;8.32;5.05;;;;;;;;;;5092843;28;20247;-61
2022/03/11 08:13:37;;;;;;;12.45;5.80;;;;;;;;;;5093273;28;20160;-61
2022/03/11 08:16:03;;;;;;;10.02;5.15;;;;;;;;;;5093376;28;20171;-62
2022/03/11 08:18:29;;;;;;;10.35;5.95;;;;;;;;;;5093067;28;20168;-65
2022/03/11 08:20:55;;;;;;;8.45;5.63;;;;;;;;;;5092943;28;20164;-61
2022/03/11 08:23:21;;;;;;;9.32;5.43;;;;;;;;;;5092526;28;20168;-61
2022/03/11 08:25:47;;;;;;;10.57;5.90;;;;;;;;;;5092769;28;20163;-60
2022/03/11 08:28:13;;;;;;;8.57;5.53;;;;;;;;;;5093154;28;20167;-60
2022/03/11 08:30:40;;;;;;;9.88;5.30;;;;;;;;;;5093118;28;20602;-61
2022/03/11 08:33:06;;;;;;;9.27;5.75;;;;;;;;;;5092721;28;20261;-63
2022/03/11 08:35:32;;;;;;;8.93;5.22;;;;;;;;;;5092873;28;20164;-59
2022/03/11 08:37:59;;;;;;;9.20;5.47;;;;;;;;;;5092809;28;20164;-62
2022/03/11 08:40:26;;;;;;;10.15;5.32;;;;;;;;;;5094873;28;20499;-61
2022/03/11 08:42:52;;;;;;;7.78;5.13;;;;;;;;;;5096491;28;20171;-61
2022/03/11 08:45:21;;;;;;;13.75;5.38;;;;;;;;;;5096285;28;20595;-62
2022/03/11 08:47:47;;;;;;;10.77;5.85;;;;;;;;;;5096113;28;20513;-60
2022/03/11 08:50:13;;;;;;;9.38;5.22;;;;;;;;;;5096204;28;20167;-62
2022/03/11 08:52:40;;;;;;;9.60;4.88;;;;;;;;;;5096304;28;20199;-61
2022/03/11 08:55:06;;;;;;;8.77;5.00;;;;;;;;;;5096284;28;20163;-61
2022/03/11 08:57:32;;;;;;;8.23;5.57;;;;;;;;;;5095893;28;20250;-61
2022/03/11 08:59:58;;;;;;;8.35;5.20;;;;;;;;;;5095868;28;20179;-61
2022/03/11 09:02:24;;;;;;;8.00;5.05;;;;;;;;;;5095856;28;20166;-61
2022/03/11 09:04:50;;;;;;;13.27;6.03;;;;;;;;;;5096010;28;20171;-60
2022/03/11 09:07:16;;;;;;;8.57;5.20;;;;;;;;;;5096206;28;20172;-61
2022/03/11 09:09:42;;;;;;;9.18;5.57;;;;;;;;;;5095794;28;20520;-59
2022/03/11 09:12:08;;;;;;;8.35;4.88;;;;;;;;;;5095953;28;20206;-61
2022/03/11 09:14:34;;;;;;;10.23;5.30;;;;;;;;;;5095872;28;20548;-60
2022/03/11 09:17:01;;;;;;;9.65;4.80;;;;;;;;;;5096311;28;20159;-61
2022/03/11 09:19:28;;;;;;;8.77;5.07;;;;;;;;;;5095916;28;20175;-61
2022/03/11 09:21:53;;;;;;;8.98;5.30;;;;;;;;;;5095652;28;20178;-60
2022/03/11 09:24:19;;;;;;;7.93;5.22;;;;;;;;;;5095452;28;20514;-59
2022/03/11 09:26:47;;;;;;;10.20;5.40;;;;;;;;;;5095272;28;20171;-60
2022/03/11 09:29:13;;;;;;;8.50;5.40;;;;;;;;;;5095542;28;20376;-60
2022/03/11 09:31:39;;;;;;;9.90;5.13;;;;;;;;;;5095147;28;20187;-61
2022/03/11 09:34:05;;;;;;;9.85;5.20;;;;;;;;;;5095108;28;20164;-60
2022/03/11 09:36:31;;;;;;;7.95;5.22;;;;;;;;;;5095171;28;20174;-60
2022/03/11 09:38:57;;;;;;;9.07;5.30;;;;;;;;;;5095000;28;20210;-60
2022/03/11 09:41:27;;;;;;;7.13;4.78;;;;;;;;;;5095048;28;20167;-61
2022/03/11 09:43:54;;;;;;;8.65;5.13;;;;;;;;;;5095176;28;20546;-61
2022/03/11 09:46:20;;;;;;;8.25;4.80;;;;;;;;;;5094883;28;20324;-60
2022/03/11 09:48:46;;;;;;;10.68;4.85;;;;;;;;;;5094778;28;20647;-60
2022/03/11 09:51:12;;;;;;;9.10;5.25;;;;;;;;;;5094493;28;20179;-60
2022/03/11 09:53:40;;;;;;;9.73;5.40;;;;;;;;;;5094886;28;20474;-60
2022/03/11 09:56:06;;;;;;;8.32;4.93;;;;;;;;;;5095069;28;20173;-60
2022/03/11 09:58:32;;;;;;;9.80;4.55;;;;;;;;;;5094743;28;20163;-60
2022/03/11 10:00:58;;;;;;;8.25;5.10;;;;;;;;;;5094736;28;20513;-62
2022/03/11 10:03:24;;;;;;;9.35;5.05;;;;;;;;;;5094970;28;20540;-61
2022/03/11 10:05:51;;;;;;;7.25;4.72;;;;;;;;;;5095508;28;20181;-60
2022/03/11 10:08:30;;;;;;;8.60;5.15;;;;;;;;;;5096280;28;20258;-61
2022/03/11 10:11:02;;;;;;;9.43;5.20;;;;;;;;;;5094837;28;20201;-61
2022/03/11 10:13:36;;;;;;;10.25;5.20;;;;;;;;;;5095028;28;20183;-61
2022/03/11 10:16:15;;;;;;;6.85;4.32;;;;;;;;;;5094733;28;20156;-61
2022/03/11 10:18:46;;;;;;;8.10;4.65;;;;;;;;;;5094613;28;20567;-60
2022/03/11 10:21:12;;;;;;;7.38;5.03;;;;;;;;;;5094551;28;20155;-60
2022/03/11 10:23:48;;;;;;;10.05;6.30;;;;;;;;;;5094371;28;20171;-61
2022/03/11 10:26:29;;;;;;;9.00;5.03;;;;;;;;;;5094581;28;20155;-62
2022/03/11 10:28:58;;;;;;;8.82;5.15;;;;;;;;;;5094334;28;20152;-61
2022/03/11 10:31:34;;;;;;;11.20;5.35;;;;;;;;;;5094737;28;20174;-61
2022/03/11 10:34:13;;;;;;;8.60;4.88;;;;;;;;;;5094430;28;20487;-61
2022/03/11 10:36:49;;;;;;;9.48;5.25;;;;;;;;;;5094242;28;20179;-61
2022/03/11 10:39:16;;;;;;;11.18;5.00;;;;;;;;;;5094372;28;20216;-61
2022/03/11 10:41:42;;;;;;;9.27;4.85;;;;;;;;;;5093985;28;20168;-61
2022/03/11 10:44:09;;;;;;;12.15;5.88;;;;;;;;;;5094302;28;20220;-61
2022/03/11 10:46:35;;;;;;;10.02;5.53;;;;;;;;;;5094074;28;20171;-60
2022/03/11 10:49:01;;;;;;;9.70;5.20;;;;;;;;;;5094142;28;20172;-60
2022/03/11 10:51:34;;;;;;;11.55;5.20;;;;;;;;;;5094272;28;20258;-60
2022/03/11 10:54:04;;;;;;;9.57;5.40;;;;;;;;;;5093879;28;20179;-60
2022/03/11 10:56:34;;;;;;;8.10;5.20;;;;;;;;;;5094350;28;20155;-59
2022/03/11 10:59:02;;;;;;;10.23;5.43;;;;;;;;;;5094110;28;20485;-59
2022/03/11 11:01:36;;;;;;;8.25;5.10;;;;;;;;;;5093783;28;20250;-60
2022/03/11 11:04:02;;;;;;;8.50;5.63;;;;;;;;;;5093593;28;20587;-59
2022/03/11 11:06:28;;;;;;;10.15;5.30;;;;;;;;;;5094211;28;20167;-60
2022/03/11 11:08:55;;;;;;;7.43;4.88;;;;;;;;;;5093827;28;20617;-60
2022/03/11 11:11:21;;;;;;;11.07;5.57;;;;;;;;;;5093805;28;20171;-61
2022/03/11 11:13:47;;;;;;;10.55;5.47;;;;;;;;;;5094101;28;20236;-61
2022/03/11 11:16:13;;;;;;;7.97;5.30;;;;;;;;;;5093573;28;20163;-60
2022/03/11 11:18:44;;;;;;;7.97;5.05;;;;;;;;;;5093559;28;20610;-61
2022/03/11 11:21:10;;;;;;;9.63;5.18;;;;;;;;;;5093882;28;20175;-61
2022/03/11 11:23:37;;;;;;;6.85;5.25;;;;;;;;;;5093614;28;20554;-62
2022/03/11 11:26:03;;;;;;;9.75;5.78;;;;;;;;;;5093457;28;20183;-62
2022/03/11 11:28:29;;;;;;;11.07;5.72;;;;;;;;;;5093352;28;20171;-61
2022/03/11 11:30:55;;;;;;;8.73;5.53;;;;;;;;;;5093509;28;20167;-60
2022/03/11 11:33:21;;;;;;;8.05;5.03;;;;;;;;;;5093261;28;20187;-63
2022/03/11 11:35:48;;;;;;;7.95;5.35;;;;;;;;;;5093341;28;20419;-60
2022/03/11 11:38:33;;;;;;;9.55;5.32;;;;;;;;;;5093383;28;20168;-61
2022/03/11 11:41:00;;;;;;;8.82;5.18;;;;;;;;;;5093527;28;20167;-61
2022/03/11 11:43:29;;;;;;;10.43;5.35;;;;;;;;;;5093330;28;20167;-60
2022/03/11 11:45:56;;;;;;;8.57;5.55;;;;;;;;;;5093770;28;20215;-60
2022/03/11 11:48:45;;;;;;;9.02;5.80;;;;;;;;;;5093298;28;20164;-61
2022/03/11 11:51:19;;;;;;;10.25;5.50;;;;;;;;;;5093061;28;20462;-60
2022/03/11 11:54:00;;;;;;;10.18;5.60;;;;;;;;;;5092966;28;20170;-61
2022/03/11 11:56:33;;;;;;;8.40;5.72;;;;;;;;;;5093399;28;20171;-64
2022/03/11 11:59:03;;;;;;;9.95;5.65;;;;;;;;;;5093965;28;20164;-64
2022/03/11 12:01:42;;;;;;;7.80;5.38;;;;;;;;;;5093336;28;20187;-59
2022/03/11 12:04:23;;;;;;;8.05;5.35;;;;;;;;;;5093714;28;20171;-61
2022/03/11 12:06:55;;;;;;;9.05;5.50;;;;;;;;;;5093152;28;20167;-61
2022/03/11 12:09:42;;;;;;;9.43;5.15;;;;;;;;;;5094942;28;20596;-60
2022/03/11 12:12:24;;;;;;;9.25;5.05;;;;;;;;;;5095798;28;20211;-64
2022/03/11 12:15:05;;;;;;;8.48;5.32;;;;;;;;;;5098890;28;20762;-61
2022/03/11 12:17:41;;;;;;;7.88;5.20;;;;;;;;;;5099521;28;20152;-61
2022/03/11 12:20:24;;;;;;;9.45;4.93;;;;;;;;;;5100314;28;20259;-60
2022/03/11 12:22:54;;;;;;;8.90;5.43;;;;;;;;;;5097325;28;20439;-58
2022/03/11 12:25:30;;;;;;;9.85;5.78;;;;;;;;;;5097242;28;20179;-59
2022/03/11 12:28:00;;;;;;;9.05;4.82;;;;;;;;;;5096788;28;20147;-59
2022/03/11 12:30:41;;;;;;;8.50;5.03;;;;;;;;;;5106410;28;20160;-61
2022/03/11 12:33:08;;;;;;;7.60;4.80;;;;;;;;;;5098459;28;20188;-60
2022/03/11 12:35:34;;;;;;;9.05;5.32;;;;;;;;;;5096618;28;20611;-61
2022/03/11 12:38:00;;;;;;;8.18;5.43;;;;;;;;;;5096690;28;20179;-60
2022/03/11 12:40:27;;;;;;;10.02;5.90;;;;;;;;;;5096694;28;20155;-61
2022/03/11 12:43:00;;;;;;;8.60;4.95;;;;;;;;;;5096929;28;20167;-62
2022/03/11 12:45:37;;;;;;;8.48;4.93;;;;;;;;;;5096615;28;20546;-61
2022/03/11 12:48:03;;;;;;;8.00;4.95;;;;;;;;;;5096556;28;20621;-61
2022/03/11 12:50:29;;;;;;;8.70;5.43;;;;;;;;;;5096630;28;20163;-60
2022/03/11 12:52:57;;;;;;;11.40;5.50;;;;;;;;;;5096272;28;20210;-60
2022/03/11 12:55:25;;;;;;;9.77;5.13;;;;;;;;;;5096495;28;20210;-60
2022/03/11 12:57:52;;;;;;;7.78;4.75;;;;;;;;;;5096570;28;20187;-60
2022/03/11 13:00:22;;;;;;;7.38;5.10;;;;;;;;;;5096398;28;20194;-62
2022/03/11 13:02:49;;;;;;;8.55;5.32;;;;;;;;;;5096579;28;20164;-61
2022/03/11 13:05:33;;;;;;;8.55;5.25;;;;;;;;;;5096631;28;20164;-62
2022/03/11 13:08:01;;;;;;;8.40;4.80;;;;;;;;;;5096762;28;20174;-61
2022/03/11 13:10:27;;;;;;;7.80;5.20;;;;;;;;;;5096560;28;20597;-61
2022/03/11 13:12:55;;;;;;;7.93;5.22;;;;;;;;;;5096086;28;20516;-61
2022/03/11 13:15:23;;;;;;;10.23;4.97;;;;;;;;;;5095876;28;20163;-61
2022/03/11 13:17:52;;;;;;;7.57;4.75;;;;;;;;;;5096384;28;20221;-61
2022/03/11 13:20:25;;;;;;;7.75;5.45;;;;;;;;;;5096004;28;20160;-61
2022/03/11 13:22:51;;;;;;;7.95;5.28;;;;;;;;;;5095541;28;20164;-61
2022/03/11 13:25:23;;;;;;;9.10;4.95;;;;;;;;;;5094656;28;20223;-61
2022/03/11 13:27:49;;;;;;;9.40;5.05;;;;;;;;;;5095505;28;20160;-61
2022/03/11 13:30:15;;;;;;;7.35;5.47;;;;;;;;;;5095224;28;20244;-61
2022/03/11 13:32:41;;;;;;;8.63;5.53;;;;;;;;;;5095108;28;20742;-61
2022/03/11 13:35:07;;;;;;;9.00;4.78;;;;;;;;;;5095023;28;20164;-61
2022/03/11 13:37:42;;;;;;;9.30;5.20;;;;;;;;;;5094905;28;20241;-60
2022/03/11 13:40:09;;;;;;;7.80;5.22;;;;;;;;;;5094836;28;20167;-62
2022/03/11 13:42:35;;;;;;;7.25;5.35;;;;;;;;;;5094893;28;20155;-61
2022/03/11 13:45:05;;;;;;;7.40;5.20;;;;;;;;;;5094985;28;20171;-60
2022/03/11 13:47:31;;;;;;;8.52;5.22;;;;;;;;;;5094981;28;20167;-60
2022/03/11 13:50:05;;;;;;;8.07;5.15;;;;;;;;;;5094713;28;20147;-61
2022/03/11 13:52:39;;;;;;;10.70;5.00;;;;;;;;;;5094707;28;20192;-60
2022/03/11 13:55:06;;;;;;;10.80;5.00;;;;;;;;;;5094623;28;20187;-62
2022/03/11 13:57:36;;;;;;;7.30;4.80;;;;;;;;;;5094610;28;20156;-60
2022/03/11 14:00:16;;;;;;;8.05;4.78;;;;;;;;;;5094739;28;20175;-60
2022/03/11 14:02:41;;;;;;;9.75;5.30;;;;;;;;;;5094961;28;20168;-60
2022/03/11 14:05:16;;;;;;;7.00;4.57;;;;;;;;;;5094514;28;20171;-61
2022/03/11 14:07:43;;;;;;;6.78;4.72;;;;;;;;;;5094683;28;20258;-61
2022/03/11 14:10:28;;;;;;;9.38;5.18;;;;;;;;;;5094314;28;20164;-61
2022/03/11 14:13:04;;;;;;;7.20;4.70;;;;;;;;;;5094650;28;20187;-62
2022/03/11 14:15:34;;;;;;;10.18;5.30;;;;;;;;;;5094554;28;20234;-61
2022/03/11 14:18:00;;;;;;;7.18;4.95;;;;;;;;;;5094856;28;20182;-62
2022/03/11 14:20:26;;;;;;;10.18;5.10;;;;;;;;;;5094222;28;20251;-61
2022/03/11 14:22:52;;;;;;;8.45;4.95;;;;;;;;;;5094288;28;20518;-61
2022/03/11 14:25:17;;;;;;;7.22;4.80;;;;;;;;;;5094339;28;20524;-62
2022/03/11 14:27:43;;;;;;;6.78;4.47;;;;;;;;;;5094718;28;20167;-61
2022/03/11 14:30:09;;;;;;;7.13;4.40;;;;;;;;;;5094760;28;20176;-61
2022/03/11 14:32:35;;;;;;;7.80;4.30;;;;;;;;;;5094145;28;20230;-61
2022/03/11 14:35:02;;;;;;;7.88;4.80;;;;;;;;;;5094545;28;20159;-61
2022/03/11 14:37:28;;;;;;;6.07;4.55;;;;;;;;;;5094452;28;20591;-60